sensor_id;sensor_type;location;lat;lon;timestamp;P1;durP1;ratioP1;P2;durP2;ratioP2
43256;SDS011;28860;43.212;27.934;2023-02-18T00:00:07;35.13;;;17.50;;
43256;SDS011;28860;43.212;27.934;2023-02-18T00:02:37;37.00;;;19.17;;
43256;SDS011;28860;43.212;27.934;2023-02-18T00:05:03;34.08;;;18.48;;
43256;SDS011;28860;43.212;27.934;2023-02-18T00:07:32;36.67;;;19.27;;
43256;SDS011;28860;43.212;27.934;2023-02-18T00:09:59;34.70;;;17.73;;
43256;SDS011;28860;43.212;27.934;2023-02-18T00:12:25;36.90;;;18.08;;
43256;SDS011;28860;43.212;27.934;2023-02-18T00:14:50;35.35;;;18.40;;
43256;SDS011;28860;43.212;27.934;2023-02-18T00:17:16;35.30;;;18.63;;
43256;SDS011;28860;43.212;27.934;2023-02-18T00:19:41;34.78;;;18.40;;
43256;SDS011;28860;43.212;27.934;2023-02-18T00:22:07;34.42;;;18.52;;
43256;SDS011;28860;43.212;27.934;2023-02-18T00:24:33;32.45;;;17.95;;
43256;SDS011;28860;43.212;27.934;2023-02-18T00:26:58;32.53;;;17.23;;
43256;SDS011;28860;43.212;27.934;2023-02-18T00:29:24;36.67;;;18.10;;
43256;SDS011;28860;43.212;27.934;2023-02-18T00:31:49;33.00;;;17.77;;
43256;SDS011;28860;43.212;27.934;2023-02-18T00:34:15;36.42;;;18.38;;
43256;SDS011;28860;43.212;27.934;2023-02-18T00:36:41;29.45;;;16.63;;
43256;SDS011;28860;43.212;27.934;2023-02-18T00:39:08;31.83;;;17.58;;
43256;SDS011;28860;43.212;27.934;2023-02-18T00:41:35;33.17;;;17.23;;
43256;SDS011;28860;43.212;27.934;2023-02-18T00:44:01;30.88;;;17.27;;
43256;SDS011;28860;43.212;27.934;2023-02-18T00:46:27;39.50;;;18.83;;
43256;SDS011;28860;43.212;27.934;2023-02-18T00:48:53;37.08;;;18.30;;
43256;SDS011;28860;43.212;27.934;2023-02-18T00:51:19;35.33;;;17.35;;
43256;SDS011;28860;43.212;27.934;2023-02-18T00:53:45;32.85;;;17.65;;
43256;SDS011;28860;43.212;27.934;2023-02-18T00:56:11;33.42;;;16.92;;
43256;SDS011;28860;43.212;27.934;2023-02-18T00:58:37;33.20;;;17.73;;
43256;SDS011;28860;43.212;27.934;2023-02-18T01:01:03;31.80;;;17.90;;
43256;SDS011;28860;43.212;27.934;2023-02-18T01:03:31;33.58;;;17.95;;
43256;SDS011;28860;43.212;27.934;2023-02-18T01:05:56;37.90;;;17.00;;
43256;SDS011;28860;43.212;27.934;2023-02-18T01:08:22;30.98;;;16.95;;
43256;SDS011;28860;43.212;27.934;2023-02-18T01:10:48;33.50;;;17.25;;
43256;SDS011;28860;43.212;27.934;2023-02-18T01:13:19;29.80;;;16.17;;
43256;SDS011;28860;43.212;27.934;2023-02-18T01:15:46;30.98;;;16.13;;
43256;SDS011;28860;43.212;27.934;2023-02-18T01:18:11;30.42;;;16.20;;
43256;SDS011;28860;43.212;27.934;2023-02-18T01:20:38;28.92;;;15.57;;
43256;SDS011;28860;43.212;27.934;2023-02-18T01:23:05;34.97;;;15.65;;
43256;SDS011;28860;43.212;27.934;2023-02-18T01:25:31;27.85;;;15.60;;
43256;SDS011;28860;43.212;27.934;2023-02-18T01:27:57;30.23;;;16.85;;
43256;SDS011;28860;43.212;27.934;2023-02-18T01:30:23;29.10;;;16.15;;
43256;SDS011;28860;43.212;27.934;2023-02-18T01:32:49;29.60;;;15.18;;
43256;SDS011;28860;43.212;27.934;2023-02-18T01:35:20;29.25;;;15.55;;
43256;SDS011;28860;43.212;27.934;2023-02-18T01:37:48;36.25;;;16.98;;
43256;SDS011;28860;43.212;27.934;2023-02-18T01:40:15;35.72;;;16.67;;
43256;SDS011;28860;43.212;27.934;2023-02-18T01:42:43;31.08;;;17.15;;
43256;SDS011;28860;43.212;27.934;2023-02-18T01:47:55;31.58;;;16.58;;
43256;SDS011;28860;43.212;27.934;2023-02-18T01:50:21;30.52;;;16.83;;
43256;SDS011;28860;43.212;27.934;2023-02-18T01:52:47;34.75;;;16.17;;
43256;SDS011;28860;43.212;27.934;2023-02-18T01:55:13;34.75;;;16.42;;
43256;SDS011;28860;43.212;27.934;2023-02-18T01:57:38;28.63;;;14.77;;
43256;SDS011;28860;43.212;27.934;2023-02-18T02:00:06;32.33;;;15.85;;
43256;SDS011;28860;43.212;27.934;2023-02-18T02:02:36;27.98;;;14.80;;
43256;SDS011;28860;43.212;27.934;2023-02-18T02:05:05;31.05;;;15.48;;
43256;SDS011;28860;43.212;27.934;2023-02-18T02:07:31;24.90;;;15.13;;
43256;SDS011;28860;43.212;27.934;2023-02-18T02:10:00;30.85;;;15.75;;
43256;SDS011;28860;43.212;27.934;2023-02-18T02:28:28;24.42;;;13.82;;
43256;SDS011;28860;43.212;27.934;2023-02-18T02:31:12;27.20;;;13.57;;
43256;SDS011;28860;43.212;27.934;2023-02-18T02:36:49;24.42;;;14.02;;
43256;SDS011;28860;43.212;27.934;2023-02-18T02:53:35;23.88;;;14.02;;
43256;SDS011;28860;43.212;27.934;2023-02-18T02:56:04;26.95;;;14.55;;
43256;SDS011;28860;43.212;27.934;2023-02-18T02:58:30;28.08;;;15.50;;
43256;SDS011;28860;43.212;27.934;2023-02-18T03:01:13;28.92;;;15.80;;
43256;SDS011;28860;43.212;27.934;2023-02-18T03:06:47;30.02;;;15.10;;
43256;SDS011;28860;43.212;27.934;2023-02-18T03:12:15;27.38;;;13.27;;
43256;SDS011;28860;43.212;27.934;2023-02-18T03:20:12;24.67;;;13.25;;
43256;SDS011;28860;43.212;27.934;2023-02-18T03:22:50;26.42;;;14.43;;
43256;SDS011;28860;43.212;27.934;2023-02-18T03:25:18;27.83;;;13.90;;
43256;SDS011;28860;43.212;27.934;2023-02-18T03:27:52;26.30;;;13.73;;
43256;SDS011;28860;43.212;27.934;2023-02-18T03:30:23;25.17;;;13.70;;
43256;SDS011;28860;43.212;27.934;2023-02-18T03:32:54;23.45;;;12.85;;
43256;SDS011;28860;43.212;27.934;2023-02-18T03:35:24;29.80;;;14.63;;
43256;SDS011;28860;43.212;27.934;2023-02-18T03:37:54;26.67;;;13.63;;
43256;SDS011;28860;43.212;27.934;2023-02-18T03:40:29;22.60;;;13.95;;
43256;SDS011;28860;43.212;27.934;2023-02-18T03:42:56;25.42;;;13.75;;
43256;SDS011;28860;43.212;27.934;2023-02-18T03:45:25;23.75;;;13.65;;
43256;SDS011;28860;43.212;27.934;2023-02-18T03:47:51;26.98;;;14.45;;
43256;SDS011;28860;43.212;27.934;2023-02-18T03:50:20;28.30;;;14.95;;
43256;SDS011;28860;43.212;27.934;2023-02-18T03:52:46;28.25;;;15.25;;
43256;SDS011;28860;43.212;27.934;2023-02-18T03:55:11;25.52;;;14.60;;
43256;SDS011;28860;43.212;27.934;2023-02-18T03:57:37;27.75;;;15.98;;
43256;SDS011;28860;43.212;27.934;2023-02-18T04:00:05;26.35;;;15.13;;
43256;SDS011;28860;43.212;27.934;2023-02-18T04:02:32;26.63;;;15.57;;
43256;SDS011;28860;43.212;27.934;2023-02-18T04:04:57;31.20;;;16.52;;
43256;SDS011;28860;43.212;27.934;2023-02-18T04:07:25;29.15;;;16.65;;
43256;SDS011;28860;43.212;27.934;2023-02-18T04:09:53;31.45;;;18.17;;
43256;SDS011;28860;43.212;27.934;2023-02-18T04:12:23;33.47;;;19.17;;
43256;SDS011;28860;43.212;27.934;2023-02-18T04:14:49;37.65;;;20.77;;
43256;SDS011;28860;43.212;27.934;2023-02-18T04:17:18;36.70;;;21.70;;
43256;SDS011;28860;43.212;27.934;2023-02-18T04:19:46;39.30;;;21.17;;
43256;SDS011;28860;43.212;27.934;2023-02-18T04:22:11;34.40;;;18.75;;
43256;SDS011;28860;43.212;27.934;2023-02-18T04:24:39;35.30;;;18.17;;
43256;SDS011;28860;43.212;27.934;2023-02-18T04:27:07;28.08;;;16.73;;
43256;SDS011;28860;43.212;27.934;2023-02-18T04:29:33;32.88;;;16.05;;
43256;SDS011;28860;43.212;27.934;2023-02-18T04:32:01;28.67;;;15.02;;
43256;SDS011;28860;43.212;27.934;2023-02-18T04:34:26;30.85;;;15.25;;
43256;SDS011;28860;43.212;27.934;2023-02-18T04:36:54;26.73;;;15.77;;
43256;SDS011;28860;43.212;27.934;2023-02-18T04:39:23;35.85;;;17.90;;
43256;SDS011;28860;43.212;27.934;2023-02-18T04:41:48;32.08;;;18.73;;
43256;SDS011;28860;43.212;27.934;2023-02-18T04:44:14;42.20;;;19.13;;
43256;SDS011;28860;43.212;27.934;2023-02-18T04:46:40;34.70;;;18.38;;
43256;SDS011;28860;43.212;27.934;2023-02-18T04:49:05;32.88;;;18.83;;
43256;SDS011;28860;43.212;27.934;2023-02-18T04:51:31;33.28;;;18.85;;
43256;SDS011;28860;43.212;27.934;2023-02-18T04:53:56;37.25;;;19.17;;
43256;SDS011;28860;43.212;27.934;2023-02-18T04:56:22;31.30;;;17.33;;
43256;SDS011;28860;43.212;27.934;2023-02-18T04:58:48;36.17;;;18.42;;
43256;SDS011;28860;43.212;27.934;2023-02-18T05:01:13;32.42;;;18.52;;
43256;SDS011;28860;43.212;27.934;2023-02-18T05:03:39;35.78;;;16.75;;
43256;SDS011;28860;43.212;27.934;2023-02-18T05:06:04;32.10;;;17.63;;
43256;SDS011;28860;43.212;27.934;2023-02-18T05:08:30;30.27;;;16.67;;
43256;SDS011;28860;43.212;27.934;2023-02-18T05:10:55;33.20;;;18.00;;
43256;SDS011;28860;43.212;27.934;2023-02-18T05:13:21;27.55;;;16.25;;
43256;SDS011;28860;43.212;27.934;2023-02-18T05:15:47;32.25;;;17.45;;
43256;SDS011;28860;43.212;27.934;2023-02-18T05:18:13;28.52;;;16.85;;
43256;SDS011;28860;43.212;27.934;2023-02-18T05:20:39;26.67;;;15.68;;
43256;SDS011;28860;43.212;27.934;2023-02-18T05:23:04;30.52;;;17.05;;
43256;SDS011;28860;43.212;27.934;2023-02-18T05:25:30;33.75;;;17.77;;
43256;SDS011;28860;43.212;27.934;2023-02-18T05:27:55;28.38;;;15.07;;
43256;SDS011;28860;43.212;27.934;2023-02-18T05:30:21;35.47;;;15.48;;
43256;SDS011;28860;43.212;27.934;2023-02-18T05:32:46;24.38;;;15.00;;
43256;SDS011;28860;43.212;27.934;2023-02-18T05:35:12;26.63;;;15.18;;
43256;SDS011;28860;43.212;27.934;2023-02-18T05:40:33;31.17;;;16.17;;
43256;SDS011;28860;43.212;27.934;2023-02-18T05:43:05;30.55;;;15.63;;
43256;SDS011;28860;43.212;27.934;2023-02-18T05:45:42;26.38;;;14.32;;
43256;SDS011;28860;43.212;27.934;2023-02-18T05:48:21;28.67;;;14.90;;
43256;SDS011;28860;43.212;27.934;2023-02-18T05:50:48;27.27;;;14.57;;
43256;SDS011;28860;43.212;27.934;2023-02-18T05:53:17;23.98;;;15.18;;
43256;SDS011;28860;43.212;27.934;2023-02-18T05:55:43;27.25;;;15.20;;
43256;SDS011;28860;43.212;27.934;2023-02-18T05:58:09;31.08;;;17.10;;
43256;SDS011;28860;43.212;27.934;2023-02-18T06:00:34;32.25;;;18.48;;
43256;SDS011;28860;43.212;27.934;2023-02-18T06:03:00;36.00;;;19.42;;
43256;SDS011;28860;43.212;27.934;2023-02-18T06:05:25;29.58;;;17.65;;
43256;SDS011;28860;43.212;27.934;2023-02-18T06:07:51;32.28;;;18.95;;
43256;SDS011;28860;43.212;27.934;2023-02-18T06:10:17;30.23;;;17.08;;
43256;SDS011;28860;43.212;27.934;2023-02-18T06:12:42;38.53;;;20.38;;
43256;SDS011;28860;43.212;27.934;2023-02-18T06:15:08;32.28;;;18.67;;
43256;SDS011;28860;43.212;27.934;2023-02-18T06:17:34;36.05;;;20.25;;
43256;SDS011;28860;43.212;27.934;2023-02-18T06:20:00;46.58;;;22.20;;
43256;SDS011;28860;43.212;27.934;2023-02-18T06:22:26;37.85;;;21.70;;
43256;SDS011;28860;43.212;27.934;2023-02-18T06:24:52;46.10;;;23.55;;
43256;SDS011;28860;43.212;27.934;2023-02-18T06:27:18;43.40;;;22.42;;
43256;SDS011;28860;43.212;27.934;2023-02-18T06:29:43;42.83;;;22.13;;
43256;SDS011;28860;43.212;27.934;2023-02-18T06:32:09;44.83;;;22.85;;
43256;SDS011;28860;43.212;27.934;2023-02-18T06:34:39;43.65;;;21.33;;
43256;SDS011;28860;43.212;27.934;2023-02-18T06:37:04;38.58;;;21.10;;
43256;SDS011;28860;43.212;27.934;2023-02-18T06:39:30;41.95;;;20.98;;
43256;SDS011;28860;43.212;27.934;2023-02-18T06:41:56;43.78;;;21.00;;
43256;SDS011;28860;43.212;27.934;2023-02-18T06:44:22;43.55;;;19.98;;
43256;SDS011;28860;43.212;27.934;2023-02-18T06:46:47;38.30;;;20.27;;
43256;SDS011;28860;43.212;27.934;2023-02-18T06:49:13;36.42;;;19.52;;
43256;SDS011;28860;43.212;27.934;2023-02-18T06:51:38;34.25;;;20.23;;
43256;SDS011;28860;43.212;27.934;2023-02-18T06:54:04;39.38;;;21.13;;
43256;SDS011;28860;43.212;27.934;2023-02-18T06:56:30;37.55;;;19.30;;
43256;SDS011;28860;43.212;27.934;2023-02-18T06:58:57;36.47;;;19.15;;
43256;SDS011;28860;43.212;27.934;2023-02-18T07:01:23;37.45;;;19.63;;
43256;SDS011;28860;43.212;27.934;2023-02-18T07:03:48;31.25;;;18.98;;
43256;SDS011;28860;43.212;27.934;2023-02-18T07:06:14;36.05;;;19.10;;
43256;SDS011;28860;43.212;27.934;2023-02-18T07:08:39;32.15;;;18.30;;
43256;SDS011;28860;43.212;27.934;2023-02-18T07:11:05;29.88;;;17.33;;
43256;SDS011;28860;43.212;27.934;2023-02-18T07:13:31;31.55;;;16.90;;
43256;SDS011;28860;43.212;27.934;2023-02-18T07:15:57;34.28;;;17.35;;
43256;SDS011;28860;43.212;27.934;2023-02-18T07:18:24;26.67;;;15.55;;
43256;SDS011;28860;43.212;27.934;2023-02-18T07:20:50;32.60;;;16.27;;
43256;SDS011;28860;43.212;27.934;2023-02-18T07:23:15;32.83;;;16.02;;
43256;SDS011;28860;43.212;27.934;2023-02-18T07:25:41;27.42;;;16.05;;
43256;SDS011;28860;43.212;27.934;2023-02-18T07:28:06;30.30;;;16.33;;
43256;SDS011;28860;43.212;27.934;2023-02-18T07:30:32;37.15;;;16.92;;
43256;SDS011;28860;43.212;27.934;2023-02-18T07:32:57;30.45;;;15.38;;
43256;SDS011;28860;43.212;27.934;2023-02-18T07:35:23;36.13;;;16.83;;
43256;SDS011;28860;43.212;27.934;2023-02-18T07:37:49;28.23;;;17.02;;
43256;SDS011;28860;43.212;27.934;2023-02-18T07:40:16;39.15;;;18.65;;
43256;SDS011;28860;43.212;27.934;2023-02-18T07:42:43;37.25;;;17.88;;
43256;SDS011;28860;43.212;27.934;2023-02-18T07:45:10;31.60;;;18.13;;
43256;SDS011;28860;43.212;27.934;2023-02-18T07:47:35;37.88;;;18.92;;
43256;SDS011;28860;43.212;27.934;2023-02-18T07:50:01;51.65;;;20.15;;
43256;SDS011;28860;43.212;27.934;2023-02-18T07:52:27;41.83;;;21.17;;
43256;SDS011;28860;43.212;27.934;2023-02-18T07:54:53;53.33;;;24.08;;
43256;SDS011;28860;43.212;27.934;2023-02-18T07:57:18;54.92;;;25.45;;
43256;SDS011;28860;43.212;27.934;2023-02-18T07:59:44;56.53;;;27.08;;
43256;SDS011;28860;43.212;27.934;2023-02-18T08:02:14;57.28;;;24.98;;
43256;SDS011;28860;43.212;27.934;2023-02-18T08:04:42;49.38;;;25.70;;
43256;SDS011;28860;43.212;27.934;2023-02-18T08:07:11;53.97;;;25.45;;
43256;SDS011;28860;43.212;27.934;2023-02-18T08:09:38;52.47;;;26.05;;
43256;SDS011;28860;43.212;27.934;2023-02-18T08:12:04;49.28;;;24.33;;
43256;SDS011;28860;43.212;27.934;2023-02-18T08:14:30;48.42;;;25.15;;
43256;SDS011;28860;43.212;27.934;2023-02-18T08:16:55;59.90;;;23.73;;
43256;SDS011;28860;43.212;27.934;2023-02-18T08:19:21;49.20;;;24.95;;
43256;SDS011;28860;43.212;27.934;2023-02-18T08:21:48;47.53;;;22.10;;
43256;SDS011;28860;43.212;27.934;2023-02-18T08:24:14;51.38;;;20.65;;
43256;SDS011;28860;43.212;27.934;2023-02-18T08:26:40;38.38;;;18.27;;
43256;SDS011;28860;43.212;27.934;2023-02-18T08:29:06;44.70;;;18.52;;
43256;SDS011;28860;43.212;27.934;2023-02-18T08:31:33;35.97;;;17.77;;
43256;SDS011;28860;43.212;27.934;2023-02-18T08:33:59;39.65;;;18.20;;
43256;SDS011;28860;43.212;27.934;2023-02-18T08:36:25;37.55;;;17.27;;
43256;SDS011;28860;43.212;27.934;2023-02-18T08:38:51;39.70;;;19.33;;
43256;SDS011;28860;43.212;27.934;2023-02-18T08:41:17;36.63;;;19.55;;
43256;SDS011;28860;43.212;27.934;2023-02-18T08:43:46;40.28;;;22.17;;
43256;SDS011;28860;43.212;27.934;2023-02-18T08:46:12;38.20;;;22.45;;
43256;SDS011;28860;43.212;27.934;2023-02-18T08:48:39;53.10;;;21.27;;
43256;SDS011;28860;43.212;27.934;2023-02-18T08:51:12;41.45;;;21.10;;
43256;SDS011;28860;43.212;27.934;2023-02-18T08:53:45;42.95;;;21.27;;
43256;SDS011;28860;43.212;27.934;2023-02-18T08:56:11;42.35;;;21.63;;
43256;SDS011;28860;43.212;27.934;2023-02-18T08:58:38;41.08;;;22.25;;
43256;SDS011;28860;43.212;27.934;2023-02-18T09:01:05;46.72;;;23.40;;
43256;SDS011;28860;43.212;27.934;2023-02-18T09:03:33;55.38;;;23.85;;
43256;SDS011;28860;43.212;27.934;2023-02-18T09:05:59;51.17;;;23.85;;
43256;SDS011;28860;43.212;27.934;2023-02-18T09:08:25;54.08;;;27.02;;
43256;SDS011;28860;43.212;27.934;2023-02-18T09:10:58;41.35;;;20.50;;
43256;SDS011;28860;43.212;27.934;2023-02-18T09:13:25;41.88;;;17.88;;
43256;SDS011;28860;43.212;27.934;2023-02-18T09:15:56;34.55;;;15.48;;
43256;SDS011;28860;43.212;27.934;2023-02-18T09:18:25;29.75;;;15.20;;
43256;SDS011;28860;43.212;27.934;2023-02-18T09:20:54;30.20;;;13.23;;
43256;SDS011;28860;43.212;27.934;2023-02-18T09:23:21;32.45;;;13.02;;
43256;SDS011;28860;43.212;27.934;2023-02-18T09:25:47;25.23;;;11.68;;
43256;SDS011;28860;43.212;27.934;2023-02-18T09:28:12;33.65;;;11.95;;
43256;SDS011;28860;43.212;27.934;2023-02-18T09:30:38;19.30;;;10.60;;
43256;SDS011;28860;43.212;27.934;2023-02-18T09:33:04;23.08;;;10.57;;
43256;SDS011;28860;43.212;27.934;2023-02-18T09:35:30;19.77;;;10.07;;
43256;SDS011;28860;43.212;27.934;2023-02-18T09:37:56;28.58;;;10.65;;
43256;SDS011;28860;43.212;27.934;2023-02-18T09:40:26;27.30;;;9.05;;
43256;SDS011;28860;43.212;27.934;2023-02-18T09:42:55;26.98;;;9.50;;
43256;SDS011;28860;43.212;27.934;2023-02-18T09:45:22;25.98;;;8.40;;
43256;SDS011;28860;43.212;27.934;2023-02-18T09:47:48;24.63;;;7.75;;
43256;SDS011;28860;43.212;27.934;2023-02-18T09:52:48;29.00;;;7.88;;
43256;SDS011;28860;43.212;27.934;2023-02-18T09:55:17;19.40;;;7.20;;
43256;SDS011;28860;43.212;27.934;2023-02-18T09:58:01;16.17;;;6.65;;
43256;SDS011;28860;43.212;27.934;2023-02-18T10:00:37;15.13;;;6.85;;
43256;SDS011;28860;43.212;27.934;2023-02-18T10:03:22;19.98;;;7.05;;
43256;SDS011;28860;43.212;27.934;2023-02-18T10:05:54;21.15;;;6.55;;
43256;SDS011;28860;43.212;27.934;2023-02-18T10:08:25;17.52;;;6.82;;
43256;SDS011;28860;43.212;27.934;2023-02-18T10:11:01;16.08;;;6.95;;
43256;SDS011;28860;43.212;27.934;2023-02-18T10:13:28;18.08;;;6.88;;
43256;SDS011;28860;43.212;27.934;2023-02-18T10:15:55;16.27;;;6.13;;
43256;SDS011;28860;43.212;27.934;2023-02-18T10:18:25;13.75;;;6.57;;
43256;SDS011;28860;43.212;27.934;2023-02-18T10:21:14;18.63;;;6.63;;
43256;SDS011;28860;43.212;27.934;2023-02-18T10:23:46;17.40;;;6.75;;
43256;SDS011;28860;43.212;27.934;2023-02-18T10:26:34;24.33;;;6.35;;
43256;SDS011;28860;43.212;27.934;2023-02-18T10:29:05;18.05;;;6.00;;
43256;SDS011;28860;43.212;27.934;2023-02-18T10:31:40;18.45;;;6.78;;
43256;SDS011;28860;43.212;27.934;2023-02-18T10:37:06;16.43;;;6.67;;
43256;SDS011;28860;43.212;27.934;2023-02-18T10:42:44;26.15;;;7.38;;
43256;SDS011;28860;43.212;27.934;2023-02-18T10:48:20;11.13;;;6.55;;
43256;SDS011;28860;43.212;27.934;2023-02-18T10:50:48;12.38;;;5.90;;
43256;SDS011;28860;43.212;27.934;2023-02-18T10:53:28;25.70;;;5.90;;
43256;SDS011;28860;43.212;27.934;2023-02-18T10:55:58;12.80;;;6.32;;
43256;SDS011;28860;43.212;27.934;2023-02-18T11:01:15;17.80;;;6.20;;
43256;SDS011;28860;43.212;27.934;2023-02-18T11:03:44;23.60;;;5.97;;
43256;SDS011;28860;43.212;27.934;2023-02-18T11:09:02;17.33;;;6.93;;
43256;SDS011;28860;43.212;27.934;2023-02-18T11:11:36;14.25;;;5.90;;
43256;SDS011;28860;43.212;27.934;2023-02-18T11:14:04;17.35;;;5.95;;
43256;SDS011;28860;43.212;27.934;2023-02-18T11:16:35;15.40;;;5.88;;
43256;SDS011;28860;43.212;27.934;2023-02-18T11:19:01;17.98;;;6.45;;
43256;SDS011;28860;43.212;27.934;2023-02-18T11:21:37;16.98;;;6.38;;
43256;SDS011;28860;43.212;27.934;2023-02-18T11:24:11;15.02;;;5.57;;
43256;SDS011;28860;43.212;27.934;2023-02-18T11:26:45;24.58;;;6.43;;
43256;SDS011;28860;43.212;27.934;2023-02-18T11:29:14;22.10;;;5.28;;
43256;SDS011;28860;43.212;27.934;2023-02-18T11:34:16;33.03;;;6.70;;
43256;SDS011;28860;43.212;27.934;2023-02-18T11:36:53;18.27;;;5.53;;
43256;SDS011;28860;43.212;27.934;2023-02-18T11:41:55;30.42;;;5.82;;
43256;SDS011;28860;43.212;27.934;2023-02-18T11:44:35;15.15;;;5.82;;
43256;SDS011;28860;43.212;27.934;2023-02-18T11:49:58;26.90;;;5.13;;
43256;SDS011;28860;43.212;27.934;2023-02-18T11:52:39;14.85;;;5.03;;
43256;SDS011;28860;43.212;27.934;2023-02-18T11:57:42;20.63;;;5.38;;
43256;SDS011;28860;43.212;27.934;2023-02-18T12:03:19;11.60;;;5.07;;
43256;SDS011;28860;43.212;27.934;2023-02-18T12:05:49;18.02;;;5.68;;
43256;SDS011;28860;43.212;27.934;2023-02-18T12:08:34;19.50;;;5.57;;
43256;SDS011;28860;43.212;27.934;2023-02-18T12:11:11;22.15;;;5.50;;
43256;SDS011;28860;43.212;27.934;2023-02-18T12:13:48;20.33;;;5.30;;
43256;SDS011;28860;43.212;27.934;2023-02-18T12:21:24;17.00;;;4.80;;
43256;SDS011;28860;43.212;27.934;2023-02-18T12:24:11;29.80;;;5.57;;
43256;SDS011;28860;43.212;27.934;2023-02-18T12:27:02;17.30;;;4.72;;
43256;SDS011;28860;43.212;27.934;2023-02-18T12:29:41;20.80;;;5.03;;
43256;SDS011;28860;43.212;27.934;2023-02-18T12:32:35;15.68;;;4.80;;
43256;SDS011;28860;43.212;27.934;2023-02-18T12:43:17;15.95;;;5.50;;
43256;SDS011;28860;43.212;27.934;2023-02-18T12:54:21;25.05;;;5.75;;
43256;SDS011;28860;43.212;27.934;2023-02-18T12:59:57;17.85;;;4.90;;
43256;SDS011;28860;43.212;27.934;2023-02-18T13:13:19;13.43;;;4.95;;
43256;SDS011;28860;43.212;27.934;2023-02-18T13:15:49;8.95;;;4.80;;
43256;SDS011;28860;43.212;27.934;2023-02-18T13:18:39;7.40;;;4.60;;
43256;SDS011;28860;43.212;27.934;2023-02-18T13:21:11;32.58;;;4.63;;
43256;SDS011;28860;43.212;27.934;2023-02-18T13:26:16;13.10;;;4.55;;
43256;SDS011;28860;43.212;27.934;2023-02-18T13:34:31;11.18;;;4.78;;
43256;SDS011;28860;43.212;27.934;2023-02-18T13:37:10;8.77;;;4.97;;
43256;SDS011;28860;43.212;27.934;2023-02-18T13:39:56;12.57;;;4.75;;
43256;SDS011;28860;43.212;27.934;2023-02-18T13:47:41;6.22;;;4.00;;
43256;SDS011;28860;43.212;27.934;2023-02-18T13:58:47;9.73;;;4.22;;
43256;SDS011;28860;43.212;27.934;2023-02-18T14:03:58;7.97;;;4.22;;
43256;SDS011;28860;43.212;27.934;2023-02-18T14:06:34;9.25;;;3.97;;
43256;SDS011;28860;43.212;27.934;2023-02-18T14:11:56;7.97;;;4.18;;
43256;SDS011;28860;43.212;27.934;2023-02-18T14:14:40;14.85;;;4.75;;
43256;SDS011;28860;43.212;27.934;2023-02-18T14:19:53;10.35;;;4.60;;
43256;SDS011;28860;43.212;27.934;2023-02-18T14:22:26;10.45;;;4.35;;
43256;SDS011;28860;43.212;27.934;2023-02-18T14:27:33;7.40;;;4.22;;
43256;SDS011;28860;43.212;27.934;2023-02-18T14:30:19;10.57;;;4.90;;
43256;SDS011;28860;43.212;27.934;2023-02-18T14:32:49;14.90;;;4.47;;
43256;SDS011;28860;43.212;27.934;2023-02-18T14:52:28;12.60;;;5.68;;
43256;SDS011;28860;43.212;27.934;2023-02-18T14:55:02;17.20;;;5.03;;
43256;SDS011;28860;43.212;27.934;2023-02-18T15:00:05;10.23;;;5.32;;
43256;SDS011;28860;43.212;27.934;2023-02-18T15:02:34;9.70;;;4.97;;
43256;SDS011;28860;43.212;27.934;2023-02-18T15:05:12;14.70;;;4.37;;
43256;SDS011;28860;43.212;27.934;2023-02-18T15:07:41;10.68;;;4.75;;
43256;SDS011;28860;43.212;27.934;2023-02-18T15:10:12;11.48;;;4.72;;
43256;SDS011;28860;43.212;27.934;2023-02-18T15:12:39;13.05;;;4.93;;
43256;SDS011;28860;43.212;27.934;2023-02-18T15:15:05;13.60;;;5.03;;
43256;SDS011;28860;43.212;27.934;2023-02-18T15:17:31;16.35;;;5.05;;
43256;SDS011;28860;43.212;27.934;2023-02-18T15:19:58;9.52;;;5.15;;
43256;SDS011;28860;43.212;27.934;2023-02-18T15:22:33;11.73;;;4.78;;
43256;SDS011;28860;43.212;27.934;2023-02-18T15:24:59;11.90;;;4.72;;
43256;SDS011;28860;43.212;27.934;2023-02-18T15:27:27;7.78;;;4.63;;
43256;SDS011;28860;43.212;27.934;2023-02-18T15:32:53;8.50;;;4.25;;
43256;SDS011;28860;43.212;27.934;2023-02-18T15:35:31;11.55;;;4.80;;
43256;SDS011;28860;43.212;27.934;2023-02-18T15:38:02;10.82;;;5.15;;
43256;SDS011;28860;43.212;27.934;2023-02-18T15:40:30;9.70;;;5.60;;
43256;SDS011;28860;43.212;27.934;2023-02-18T15:42:59;11.55;;;5.25;;
43256;SDS011;28860;43.212;27.934;2023-02-18T15:45:35;12.32;;;5.65;;
43256;SDS011;28860;43.212;27.934;2023-02-18T15:48:03;10.70;;;5.25;;
43256;SDS011;28860;43.212;27.934;2023-02-18T15:50:36;9.00;;;4.82;;
43256;SDS011;28860;43.212;27.934;2023-02-18T15:53:13;11.85;;;5.32;;
43256;SDS011;28860;43.212;27.934;2023-02-18T15:55:42;11.07;;;5.75;;
43256;SDS011;28860;43.212;27.934;2023-02-18T16:00:58;11.43;;;6.18;;
43256;SDS011;28860;43.212;27.934;2023-02-18T16:03:29;9.77;;;5.03;;
43256;SDS011;28860;43.212;27.934;2023-02-18T16:06:11;13.13;;;5.80;;
43256;SDS011;28860;43.212;27.934;2023-02-18T16:09:29;12.50;;;5.57;;
43256;SDS011;28860;43.212;27.934;2023-02-18T16:11:47;9.75;;;5.22;;
43256;SDS011;28860;43.212;27.934;2023-02-18T16:14:31;10.52;;;5.03;;
43256;SDS011;28860;43.212;27.934;2023-02-18T16:22:22;9.65;;;4.80;;
43256;SDS011;28860;43.212;27.934;2023-02-18T16:27:45;10.25;;;5.40;;
43256;SDS011;28860;43.212;27.934;2023-02-18T16:30:18;9.73;;;4.97;;
43256;SDS011;28860;43.212;27.934;2023-02-18T16:32:46;13.13;;;5.22;;
43256;SDS011;28860;43.212;27.934;2023-02-18T16:35:12;13.23;;;5.13;;
43256;SDS011;28860;43.212;27.934;2023-02-18T16:37:38;9.43;;;4.90;;
43256;SDS011;28860;43.212;27.934;2023-02-18T16:43:15;7.68;;;4.55;;
43256;SDS011;28860;43.212;27.934;2023-02-18T16:45:44;10.05;;;4.95;;
43256;SDS011;28860;43.212;27.934;2023-02-18T16:51:08;14.38;;;5.78;;
43256;SDS011;28860;43.212;27.934;2023-02-18T16:53:45;15.82;;;5.63;;
43256;SDS011;28860;43.212;27.934;2023-02-18T16:56:14;9.73;;;6.05;;
43256;SDS011;28860;43.212;27.934;2023-02-18T16:58:45;15.52;;;6.40;;
43256;SDS011;28860;43.212;27.934;2023-02-18T17:03:56;13.18;;;6.28;;
43256;SDS011;28860;43.212;27.934;2023-02-18T17:06:23;16.98;;;6.28;;
43256;SDS011;28860;43.212;27.934;2023-02-18T17:08:49;14.82;;;6.70;;
43256;SDS011;28860;43.212;27.934;2023-02-18T17:11:24;13.57;;;6.60;;
43256;SDS011;28860;43.212;27.934;2023-02-18T17:13:53;12.65;;;6.55;;
43256;SDS011;28860;43.212;27.934;2023-02-18T17:16:22;16.73;;;7.00;;
43256;SDS011;28860;43.212;27.934;2023-02-18T17:18:48;14.43;;;6.68;;
43256;SDS011;28860;43.212;27.934;2023-02-18T17:21:14;15.50;;;7.07;;
43256;SDS011;28860;43.212;27.934;2023-02-18T17:23:43;12.68;;;6.47;;
43256;SDS011;28860;43.212;27.934;2023-02-18T17:26:14;11.27;;;7.03;;
43256;SDS011;28860;43.212;27.934;2023-02-18T17:28:42;15.73;;;6.72;;
43256;SDS011;28860;43.212;27.934;2023-02-18T17:31:11;18.35;;;5.82;;
43256;SDS011;28860;43.212;27.934;2023-02-18T17:33:41;15.95;;;6.10;;
43256;SDS011;28860;43.212;27.934;2023-02-18T17:36:09;13.88;;;6.25;;